| time (UTC) | temp C | wind direction | speed KPH | gust KPH | rain 1hr cm | rain 24hr cm | rain mn cm | humidity % | barometer mb |
| 20260906125119 | 26 | 261 | 8.0 | 12.9 | 0.00 | 0.00 | 0.00 | 55 | 1014.2 |
| 20260906124619 | 26 | 251 | 14.5 | 22.5 | 0.00 | 0.00 | 0.00 | 54 | 1013.9 |
| 20260906124118 | 26 | 258 | 11.3 | 14.5 | 0.00 | 0.00 | 0.00 | 54 | 1013.9 |
| 20260906123618 | 26 | 283 | 9.7 | 16.1 | 0.00 | 0.00 | 0.00 | 53 | 1014.2 |
| 20260906123118 | 27 | 261 | 20.9 | 29.0 | 0.00 | 0.00 | 0.00 | 52 | 1013.9 |
| 20260906122618 | 27 | 163 | 8.0 | 11.3 | 0.00 | 0.00 | 0.00 | 52 | 1013.9 |
| 20260906122118 | 26 | 302 | 11.3 | 14.5 | 0.00 | 0.00 | 0.00 | 53 | 1013.9 |
| 20260906121618 | 27 | 293 | 14.5 | 25.7 | 0.00 | 0.00 | 0.00 | 53 | 1014.2 |
| 20260906121118 | 27 | 307 | 8.0 | 14.5 | 0.00 | 0.00 | 0.00 | 52 | 1014.2 |
| 20260906120618 | 27 | 305 | 19.3 | 25.7 | 0.00 | 0.00 | 0.00 | 51 | 1013.9 |
| 20260906120118 | 27 | 274 | 9.7 | 16.1 | 0.00 | 0.00 | 0.00 | 50 | 1014.2 |
| 20260906115618 | 27 | 288 | 11.3 | 17.7 | 0.00 | 0.00 | 0.00 | 50 | 1014.2 |
| 20260906115118 | 27 | 241 | 19.3 | 20.9 | 0.00 | 0.00 | 0.00 | 50 | 1013.9 |
| 20260906114619 | 27 | 291 | 14.5 | 16.1 | 0.00 | 0.00 | 0.00 | 49 | 1014.2 |
| 20260906114118 | 27 | 258 | 19.3 | 32.2 | 0.00 | 0.00 | 0.00 | 48 | 1014.2 |
| 20260906113619 | 27 | 313 | 16.1 | 32.2 | 0.00 | 0.00 | 0.00 | 46 | 1014.2 |
| 20260906113118 | 27 | 277 | 22.5 | 33.8 | 0.00 | 0.00 | 0.00 | 46 | 1014.6 |
| 20260906112622 | 27 | 234 | 8.0 | 11.3 | 0.00 | 0.00 | 0.00 | 46 | 1014.2 |
| 20260906112118 | 27 | 321 | 11.3 | 16.1 | 0.00 | 0.00 | 0.00 | 44 | 1014.6 |
| 20260906111618 | 27 | 271 | 11.3 | 17.7 | 0.00 | 0.00 | 0.00 | 45 | 1014.6 |
| 20260906111118 | 27 | 237 | 16.1 | 20.9 | 0.00 | 0.00 | 0.00 | 44 | 1014.2 |
| 20260906110618 | 27 | 251 | 12.9 | 16.1 | 0.00 | 0.00 | 0.00 | 43 | 1014.2 |
| 20260906110118 | 27 | 309 | 16.1 | 20.9 | 0.00 | 0.00 | 0.00 | 42 | 1014.2 |
| 20260906105618 | 27 | 249 | 4.8 | 8.0 | 0.00 | 0.00 | 0.00 | 41 | 1014.6 |
| 20260906105118 | 28 | 281 | 9.7 | 16.1 | 0.00 | 0.00 | 0.00 | 41 | 1014.6 |
| 20260906104618 | 27 | 282 | 9.7 | 12.9 | 0.00 | 0.00 | 0.00 | 42 | 1014.2 |
| 20260906104118 | 27 | 271 | 19.3 | 22.5 | 0.00 | 0.00 | 0.00 | 43 | 1014.2 |
| 20260906103621 | 27 | 271 | 19.3 | 24.1 | 0.00 | 0.00 | 0.00 | 44 | 1014.6 |
| 20260906103118 | 27 | 295 | 19.3 | 22.5 | 0.00 | 0.00 | 0.00 | 45 | 1014.2 |
| 20260906102618 | 27 | 256 | 4.8 | 4.8 | 0.00 | 0.00 | 0.00 | 45 | 1014.6 |
| 20260906102118 | 27 | 241 | 11.3 | 16.1 | 0.00 | 0.00 | 0.00 | 44 | 1014.6 |
| 20260906101618 | 27 | 285 | 16.1 | 25.7 | 0.00 | 0.00 | 0.00 | 43 | 1014.6 |
| 20260906101118 | 27 | 248 | 8.0 | 11.3 | 0.00 | 0.00 | 0.00 | 43 | 1014.6 |
| 20260906100618 | 27 | 267 | 16.1 | 24.1 | 0.00 | 0.00 | 0.00 | 42 | 1014.6 |
| 20260906100118 | 27 | 234 | 11.3 | 16.1 | 0.00 | 0.00 | 0.00 | 43 | 1014.9 |
| 20260906095618 | 27 | 231 | 9.7 | 12.9 | 0.00 | 0.00 | 0.00 | 43 | 1014.6 |
| 20260906095118 | 27 | 274 | 20.9 | 27.4 | 0.00 | 0.00 | 0.00 | 45 | 1014.9 |
| 20260906094618 | 27 | 288 | 11.3 | 12.9 | 0.00 | 0.00 | 0.00 | 39 | 1014.9 |
| 20260906094118 | 27 | 6 | 17.7 | 20.9 | 0.00 | 0.00 | 0.00 | 39 | 1014.9 |
| 20260906093618 | 27 | 290 | 11.3 | 14.5 | 0.00 | 0.00 | 0.00 | 36 | 1014.6 |
| 20260906093119 | 27 | 291 | 14.5 | 17.7 | 0.00 | 0.00 | 0.00 | 43 | 1014.9 |
| 20260906092618 | 27 | 241 | 14.5 | 25.7 | 0.00 | 0.00 | 0.00 | 39 | 1014.6 |
| 20260906092118 | 27 | 257 | 11.3 | 16.1 | 0.00 | 0.00 | 0.00 | 36 | 1014.6 |
| 20260906091619 | 26 | 286 | 19.3 | 25.7 | 0.00 | 0.00 | 0.00 | 42 | 1014.9 |
| 20260906091118 | 26 | 319 | 19.3 | 22.5 | 0.00 | 0.00 | 0.00 | 41 | 1014.9 |
| 20260906090618 | 26 | 344 | 11.3 | 14.5 | 0.00 | 0.00 | 0.00 | 41 | 1014.9 |
| 20260906090118 | 26 | 103 | 8.0 | 11.3 | 0.00 | 0.00 | 0.00 | 46 | 1014.9 |
| 20260906085618 | 26 | 303 | 22.5 | 32.2 | 0.00 | 0.00 | 0.00 | 47 | 1015.2 |
| 20260906085118 | 26 | 255 | 8.0 | 9.7 | 0.00 | 0.00 | 0.00 | 45 | 1014.9 |
| 20260906084619 | 26 | 315 | 16.1 | 20.9 | 0.00 | 0.00 | 0.00 | 48 | 1015.2 |
| 20260906084118 | 26 | 288 | 14.5 | 17.7 | 0.00 | 0.00 | 0.00 | 47 | 1015.2 |
| 20260906083618 | 26 | 289 | 9.7 | 11.3 | 0.00 | 0.00 | 0.00 | 48 | 1015.2 |
| 20260906083118 | 26 | 274 | 17.7 | 22.5 | 0.00 | 0.00 | 0.00 | 45 | 1015.2 |
| 20260906082619 | 25 | 264 | 6.4 | 9.7 | 0.00 | 0.00 | 0.00 | 47 | 1014.9 |
| 20260906082118 | 25 | 280 | 16.1 | 20.9 | 0.00 | 0.00 | 0.00 | 47 | 1015.2 |
| 20260906081618 | 25 | 15 | 6.4 | 8.0 | 0.00 | 0.00 | 0.00 | 50 | 1015.2 |
| 20260906081118 | 25 | 286 | 12.9 | 17.7 | 0.00 | 0.00 | 0.00 | 54 | 1015.2 |
| 20260906080618 | 25 | 293 | 14.5 | 22.5 | 0.00 | 0.00 | 0.00 | 55 | 1015.2 |
| 20260906080118 | 25 | 246 | 11.3 | 14.5 | 0.00 | 0.00 | 0.00 | 53 | 1015.2 |
| 20260906075618 | 25 | 234 | 11.3 | 14.5 | 0.00 | 0.00 | 0.00 | 51 | 1015.2 |
| 20260906075120 | 24 | 266 | 17.7 | 22.5 | 0.00 | 0.00 | 0.00 | 56 | 1015.2 |
| 20260906074618 | 24 | 281 | 14.5 | 17.7 | 0.00 | 0.00 | 0.00 | 57 | 1015.2 |
| 20260906074118 | 24 | 230 | 8.0 | 8.0 | 0.00 | 0.00 | 0.00 | 58 | 1015.2 |
| 20260906073618 | 24 | 279 | 12.9 | 17.7 | 0.00 | 0.00 | 0.00 | 57 | 1015.6 |
| 20260906073118 | 24 | 203 | 16.1 | 22.5 | 0.00 | 0.00 | 0.00 | 57 | 1015.2 |
| 20260906072618 | 23 | 273 | 11.3 | 14.5 | 0.00 | 0.00 | 0.00 | 59 | 1015.2 |
| 20260906072118 | 23 | 289 | 11.3 | 16.1 | 0.00 | 0.00 | 0.00 | 60 | 1015.2 |
| 20260906071618 | 23 | 268 | 12.9 | 20.9 | 0.00 | 0.00 | 0.00 | 62 | 1015.2 |
| 20260906071118 | 23 | 258 | 9.7 | 12.9 | 0.00 | 0.00 | 0.00 | 60 | 1015.6 |
| 20260906070619 | 23 | 262 | 4.8 | 9.7 | 0.00 | 0.00 | 0.00 | 65 | 1015.6 |
| 20260906070118 | 23 | 268 | 4.8 | 8.0 | 0.00 | 0.00 | 0.00 | 66 | 1015.2 |
| 20260906065618 | 22 | 281 | 9.7 | 12.9 | 0.00 | 0.00 | 0.00 | 67 | 1015.6 |
| 20260906065118 | 22 | 260 | 11.3 | 16.1 | 0.00 | 0.00 | 0.00 | 66 | 1015.2 |
| 20260906064618 | 22 | 284 | 6.4 | 12.9 | 0.00 | 0.00 | 0.00 | 67 | 1015.2 |
| 20260906064118 | 22 | 289 | 11.3 | 17.7 | 0.00 | 0.00 | 0.00 | 68 | 1015.2 |
| 20260906063618 | 22 | 270 | 11.3 | 16.1 | 0.00 | 0.00 | 0.00 | 68 | 1015.6 |
| 20260906063118 | 22 | 246 | 11.3 | 14.5 | 0.00 | 0.00 | 0.00 | 69 | 1015.2 |
| 20260906062620 | 22 | 279 | 11.3 | 14.5 | 0.00 | 0.00 | 0.00 | 70 | 1015.2 |
| 20260906062118 | 22 | 258 | 11.3 | 14.5 | 0.00 | 0.00 | 0.00 | 70 | 1015.6 |
| 20260906061619 | 22 | 280 | 8.0 | 9.7 | 0.00 | 0.00 | 0.00 | 70 | 1015.2 |
| 20260906061118 | 22 | 316 | 9.7 | 14.5 | 0.00 | 0.00 | 0.00 | 70 | 1014.9 |
| 20260906060617 | 22 | 165 | 9.7 | 14.5 | 0.00 | 0.00 | 0.00 | 69 | 1015.2 |
| 20260906060118 | 22 | 291 | 12.9 | 24.1 | 0.00 | 0.00 | 0.00 | 70 | 1015.2 |
| 20260906055618 | 21 | 284 | 11.3 | 14.5 | 0.00 | 0.00 | 0.00 | 71 | 1015.2 |
| 20260906055118 | 21 | 248 | 6.4 | 11.3 | 0.00 | 0.00 | 0.00 | 73 | 1014.9 |
| 20260906054618 | 21 | 203 | 4.8 | 4.8 | 0.00 | 0.00 | 0.00 | 71 | 1014.6 |
| 20260906054118 | 21 | 281 | 8.0 | 9.7 | 0.00 | 0.00 | 0.00 | 71 | 1014.9 |
| 20260906053618 | 21 | 36 | 6.4 | 8.0 | 0.00 | 0.00 | 0.00 | 71 | 1014.9 |
| 20260906053118 | 21 | 302 | 9.7 | 11.3 | 0.00 | 0.00 | 0.00 | 74 | 1014.9 |
| 20260906052618 | 21 | 283 | 6.4 | 9.7 | 0.00 | 0.00 | 0.00 | 74 | 1014.9 |
| 20260906052120 | 21 | 136 | 3.2 | 3.2 | 0.00 | 0.00 | 0.00 | 76 | 1014.9 |
| 20260906051618 | 20 | 277 | 3.2 | 3.2 | 0.00 | 0.00 | 0.00 | 77 | 1014.6 |
| 20260906051118 | 20 | 254 | 3.2 | 3.2 | 0.00 | 0.00 | 0.00 | 79 | 1014.9 |
| 20260906050618 | 20 | 317 | 12.9 | 20.9 | 0.00 | 0.00 | 0.00 | 80 | 1014.9 |
| 20260906050118 | 20 | 275 | 17.7 | 22.5 | 0.00 | 0.00 | 0.00 | 81 | 1014.9 |
| 20260906045618 | 20 | 244 | 8.0 | 11.3 | 0.00 | 0.00 | 0.00 | 82 | 1014.9 |
| 20260906045118 | 20 | 229 | 4.8 | 8.0 | 0.00 | 0.00 | 0.00 | 83 | 1014.9 |
| 20260906044618 | 20 | 303 | 16.1 | 22.5 | 0.00 | 0.00 | 0.00 | 82 | 1014.9 |
| 20260906044118 | 20 | 123 | 6.4 | 9.7 | 0.00 | 0.00 | 0.00 | 83 | 1014.6 |
| 20260906043618 | 19 | 255 | 4.8 | 8.0 | 0.00 | 0.00 | 0.00 | 85 | 1014.6 |
| 20260906043118 | 19 | 277 | 9.7 | 11.3 | 0.00 | 0.00 | 0.00 | 86 | 1014.6 |
| 20260906042619 | 19 | 247 | 6.4 | 8.0 | 0.00 | 0.00 | 0.00 | 86 | 1014.6 |
| 20260906042118 | 18 | 229 | 6.4 | 8.0 | 0.00 | 0.00 | 0.00 | 87 | 1014.6 |
| 20260906041618 | 18 | 294 | 4.8 | 8.0 | 0.00 | 0.00 | 0.00 | 87 | 1014.6 |
| 20260906041118 | 18 | 285 | 6.4 | 9.7 | 0.00 | 0.00 | 0.00 | 88 | 1014.6 |
| 20260906040618 | 18 | 275 | 6.4 | 8.0 | 0.00 | 0.00 | 0.00 | 88 | 1014.6 |
| 20260906040118 | 18 | 258 | 4.8 | 8.0 | 0.00 | 0.00 | 0.00 | 88 | 1014.6 |
| 20260906035619 | 17 | 247 | 3.2 | 3.2 | 0.00 | 0.00 | 0.00 | 89 | 1014.9 |
| 20260906035118 | 17 | 271 | 3.2 | 4.8 | 0.00 | 0.00 | 0.00 | 90 | 1014.6 |
| 20260906034618 | 17 | 35 | 0.0 | 1.6 | 0.00 | 0.00 | 0.00 | 90 | 1014.6 |
| 20260906034118 | 17 | 287 | 4.8 | 8.0 | 0.00 | 0.00 | 0.00 | 91 | 1014.6 |
| 20260906033618 | 17 | 266 | 1.6 | 1.6 | 0.00 | 0.00 | 0.00 | 91 | 1014.9 |
| 20260906033118 | 17 | 272 | 1.6 | 1.6 | 0.00 | 0.00 | 0.00 | 91 | 1014.6 |
| 20260906032620 | 17 | 269 | 3.2 | 3.2 | 0.00 | 0.00 | 0.00 | 91 | 1014.6 |
| 20260906032118 | 17 | 284 | 8.0 | 9.7 | 0.00 | 0.00 | 0.00 | 91 | 1014.2 |
| 20260906031618 | 17 | 277 | 8.0 | 8.0 | 0.00 | 0.00 | 0.00 | 91 | 1014.6 |
| 20260906031118 | 17 | 300 | 0.0 | 0.0 | 0.00 | 0.00 | 0.00 | 91 | 1014.2 |
| 20260906030620 | 17 | 256 | 3.2 | 3.2 | 0.00 | 0.00 | 0.00 | 90 | 1014.2 |
| 20260906030118 | 17 | 255 | 1.6 | 1.6 | 0.00 | 0.00 | 0.00 | 90 | 1014.2 |
| 20260906025618 | 17 | 264 | 3.2 | 3.2 | 0.00 | 0.00 | 0.00 | 90 | 1014.2 |
| 20260906025118 | 18 | 284 | 4.8 | 4.8 | 0.00 | 0.00 | 0.00 | 89 | 1014.2 |
| 20260906024619 | 18 | 255 | 4.8 | 8.0 | 0.00 | 0.00 | 0.00 | 88 | 1014.2 |
| 20260906024119 | 18 | 355 | 4.8 | 4.8 | 0.00 | 0.00 | 0.00 | 88 | 1014.2 |
| 20260906023618 | 18 | 279 | 4.8 | 8.0 | 0.00 | 0.00 | 0.00 | 88 | 1014.2 |
| 20260906023119 | 18 | 37 | 4.8 | 8.0 | 0.00 | 0.00 | 0.00 | 87 | 1014.2 |
| 20260906022626 | 18 | 306 | 4.8 | 4.8 | 0.00 | 0.00 | 0.00 | 87 | 1014.2 |
| 20260906022119 | 18 | 261 | 8.0 | 9.7 | 0.00 | 0.00 | 0.00 | 88 | 1014.2 |
| 20260906021618 | 18 | 40 | 1.6 | 1.6 | 0.00 | 0.00 | 0.00 | 87 | 1013.9 |
| 20260906021119 | 18 | 299 | 4.8 | 4.8 | 0.00 | 0.00 | 0.00 | 88 | 1014.2 |
| 20260906020618 | 18 | 288 | 4.8 | 4.8 | 0.00 | 0.00 | 0.00 | 89 | 1013.9 |
| 20260906020118 | 18 | 102 | 1.6 | 3.2 | 0.00 | 0.00 | 0.00 | 88 | 1013.9 |
| 20260906015619 | 18 | 279 | 1.6 | 3.2 | 0.00 | 0.00 | 0.00 | 88 | 1014.2 |
| 20260906015119 | 18 | 357 | 0.0 | 1.6 | 0.00 | 0.00 | 0.00 | 88 | 1013.9 |
| 20260906014619 | 18 | 275 | 6.4 | 8.0 | 0.00 | 0.00 | 0.00 | 87 | 1013.9 |
| 20260906014119 | 18 | 285 | 6.4 | 11.3 | 0.00 | 0.00 | 0.00 | 86 | 1013.9 |
| 20260906013618 | 18 | 276 | 9.7 | 11.3 | 0.00 | 0.00 | 0.00 | 87 | 1013.9 |
| 20260906013118 | 18 | 40 | 4.8 | 3.2 | 0.00 | 0.00 | 0.00 | 87 | 1013.9 |
| 20260906012618 | 18 | 238 | 0.0 | 1.6 | 0.00 | 0.00 | 0.00 | 88 | 1013.9 |
| 20260906012118 | 18 | 55 | 3.2 | 4.8 | 0.00 | 0.00 | 0.00 | 88 | 1013.9 |
| 20260906011618 | 18 | 4 | 3.2 | 3.2 | 0.00 | 0.00 | 0.00 | 88 | 1013.9 |
| 20260906011118 | 18 | 83 | 6.4 | 8.0 | 0.00 | 0.00 | 0.00 | 87 | 1013.9 |
| 20260906010618 | 18 | 241 | 1.6 | 3.2 | 0.00 | 0.00 | 0.00 | 86 | 1013.9 |
| 20260906010118 | 18 | 156 | 4.8 | 9.7 | 0.00 | 0.00 | 0.00 | 86 | 1013.9 |
| 20260906005618 | 18 | 52 | 11.3 | 14.5 | 0.00 | 0.00 | 0.00 | 87 | 1013.9 |
| 20260906005118 | 18 | 249 | 4.8 | 4.8 | 0.00 | 0.00 | 0.00 | 86 | 1013.9 |
| 20260906004618 | 18 | 269 | 9.7 | 12.9 | 0.00 | 0.00 | 0.00 | 87 | 1013.9 |
| 20260906004119 | 18 | 259 | 11.3 | 12.9 | 0.00 | 0.00 | 0.00 | 87 | 1013.5 |
| 20260906003618 | 18 | 256 | 19.3 | 25.7 | 0.00 | 0.00 | 0.00 | 88 | 1013.9 |
| 20260906003119 | 18 | 245 | 9.7 | 12.9 | 0.00 | 0.00 | 0.00 | 88 | 1013.9 |
| 20260906002619 | 18 | 266 | 11.3 | 14.5 | 0.00 | 0.00 | 0.00 | 88 | 1013.9 |
| 20260906002124 | 18 | 294 | 9.7 | 12.9 | 0.00 | 0.00 | 0.00 | 88 | 1013.9 |
| 20260906001618 | 18 | 290 | 6.4 | 9.7 | 0.00 | 0.00 | 0.00 | 88 | 1014.2 |
| 20260906001118 | 18 | 262 | 8.0 | 12.9 | 0.00 | 0.00 | 0.00 | 89 | 1013.9 |
| 20260906000618 | 18 | 215 | 8.0 | 14.5 | 0.00 | 0.00 | 0.00 | 89 | 1014.2 |
| 20260906000118 | 18 | 293 | 14.5 | 20.9 | 0.00 | 0.00 | 0.00 | 89 | 1013.9 |
| 20260905235618 | 18 | 292 | 6.4 | 9.7 | 0.00 | 0.00 | 0.00 | 88 | 1014.2 |
| 20260905235118 | 18 | 296 | 6.4 | 9.7 | 0.00 | 0.00 | 0.00 | 88 | 1013.9 |
| 20260905234618 | 18 | 238 | 11.3 | 12.9 | 0.00 | 0.00 | 0.00 | 87 | 1013.9 |
| 20260905234118 | 18 | 192 | 6.4 | 8.0 | 0.00 | 0.00 | 0.00 | 87 | 1013.9 |
| 20260905233619 | 18 | 307 | 6.4 | 8.0 | 0.00 | 0.00 | 0.00 | 87 | 1014.2 |
| 20260905233120 | 18 | 229 | 3.2 | 3.2 | 0.00 | 0.00 | 0.00 | 86 | 1013.9 |
| 20260905232618 | 18 | 253 | 4.8 | 8.0 | 0.00 | 0.00 | 0.00 | 87 | 1013.9 |
| 20260905232119 | 18 | 282 | 8.0 | 12.9 | 0.00 | 0.00 | 0.00 | 87 | 1014.2 |
| 20260905231618 | 18 | 268 | 6.4 | 8.0 | 0.00 | 0.00 | 0.00 | 87 | 1013.9 |
| 20260905231118 | 18 | 69 | 6.4 | 8.0 | 0.00 | 0.00 | 0.00 | 87 | 1013.9 |
| 20260905230619 | 18 | 272 | 6.4 | 8.0 | 0.00 | 0.00 | 0.00 | 87 | 1014.2 |
| 20260905230118 | 18 | 219 | 3.2 | 3.2 | 0.00 | 0.00 | 0.00 | 86 | 1014.2 |
| 20260905225618 | 18 | 291 | 4.8 | 9.7 | 0.00 | 0.00 | 0.00 | 85 | 1014.2 |
| 20260905225118 | 18 | 292 | 8.0 | 11.3 | 0.00 | 0.00 | 0.00 | 83 | 1014.2 |
| 20260905224618 | 18 | 251 | 9.7 | 16.1 | 0.00 | 0.00 | 0.00 | 81 | 1014.2 |
| 20260905224118 | 18 | 311 | 12.9 | 14.5 | 0.00 | 0.00 | 0.00 | 82 | 1014.2 |
| 20260905223618 | 18 | 260 | 3.2 | 4.8 | 0.00 | 0.00 | 0.00 | 83 | 1013.9 |
| 20260905223118 | 18 | 297 | 6.4 | 12.9 | 0.00 | 0.00 | 0.00 | 85 | 1013.9 |
| 20260905222619 | 18 | 254 | 4.8 | 4.8 | 0.00 | 0.00 | 0.00 | 86 | 1014.2 |
| 20260905222118 | 18 | 273 | 4.8 | 4.8 | 0.00 | 0.00 | 0.00 | 86 | 1014.6 |
| 20260905221618 | 18 | 243 | 4.8 | 4.8 | 0.00 | 0.00 | 0.00 | 86 | 1014.2 |
| 20260905221118 | 18 | 283 | 4.8 | 4.8 | 0.00 | 0.00 | 0.00 | 86 | 1014.6 |
| 20260905220619 | 18 | 270 | 11.3 | 16.1 | 0.00 | 0.00 | 0.00 | 86 | 1014.6 |
| 20260905220118 | 18 | 272 | 4.8 | 4.8 | 0.00 | 0.00 | 0.00 | 86 | 1014.6 |
| 20260905215618 | 18 | 286 | 6.4 | 8.0 | 0.00 | 0.00 | 0.00 | 85 | 1014.6 |
| 20260905215118 | 18 | 182 | 6.4 | 8.0 | 0.00 | 0.00 | 0.00 | 85 | 1014.9 |
| 20260905214618 | 18 | 301 | 9.7 | 12.9 | 0.00 | 0.00 | 0.00 | 84 | 1014.9 |
| 20260905214118 | 19 | 251 | 9.7 | 11.3 | 0.00 | 0.00 | 0.00 | 82 | 1014.9 |
| 20260905213618 | 19 | 235 | 3.2 | 3.2 | 0.00 | 0.00 | 0.00 | 81 | 1014.9 |
| 20260905213118 | 18 | 344 | 8.0 | 11.3 | 0.00 | 0.00 | 0.00 | 81 | 1014.9 |
| 20260905212618 | 18 | 279 | 11.3 | 14.5 | 0.00 | 0.00 | 0.00 | 85 | 1014.6 |
| 20260905212118 | 18 | 284 | 1.6 | 1.6 | 0.00 | 0.00 | 0.00 | 86 | 1014.9 |
| 20260905211618 | 18 | 278 | 1.6 | 1.6 | 0.00 | 0.00 | 0.00 | 87 | 1014.9 |
| 20260905211118 | 18 | 264 | 1.6 | 1.6 | 0.00 | 0.00 | 0.00 | 88 | 1015.2 |
| 20260905210619 | 18 | 290 | 6.4 | 8.0 | 0.00 | 0.00 | 0.00 | 89 | 1015.2 |
| 20260905210118 | 18 | 250 | 1.6 | 3.2 | 0.00 | 0.00 | 0.00 | 89 | 1015.2 |
| 20260905205618 | 18 | 276 | 6.4 | 8.0 | 0.00 | 0.00 | 0.00 | 89 | 1015.2 |
| 20260905205118 | 18 | 286 | 6.4 | 8.0 | 0.00 | 0.00 | 0.00 | 89 | 1014.9 |
| 20260905204618 | 18 | 271 | 4.8 | 9.7 | 0.00 | 0.00 | 0.00 | 89 | 1015.2 |
| 20260905204118 | 18 | 278 | 9.7 | 12.9 | 0.00 | 0.00 | 0.00 | 89 | 1015.2 |
| 20260905203618 | 18 | 326 | 3.2 | 3.2 | 0.00 | 0.00 | 0.00 | 88 | 1015.2 |
| 20260905203118 | 18 | 277 | 6.4 | 8.0 | 0.00 | 0.00 | 0.00 | 88 | 1015.2 |
| 20260905202618 | 18 | 248 | 8.0 | 12.9 | 0.00 | 0.00 | 0.00 | 88 | 1015.2 |
| 20260905202118 | 18 | 263 | 9.7 | 12.9 | 0.00 | 0.00 | 0.00 | 88 | 1015.2 |
| 20260905201618 | 18 | 283 | 8.0 | 9.7 | 0.00 | 0.00 | 0.00 | 88 | 1015.2 |
| 20260905201118 | 18 | 276 | 6.4 | 8.0 | 0.00 | 0.00 | 0.00 | 88 | 1015.2 |
| 20260905200618 | 18 | 272 | 3.2 | 4.8 | 0.00 | 0.00 | 0.00 | 89 | 1015.2 |
| 20260905200118 | 18 | 249 | 4.8 | 8.0 | 0.00 | 0.00 | 0.00 | 88 | 1015.2 |
| 20260905195619 | 18 | 273 | 6.4 | 8.0 | 0.00 | 0.00 | 0.00 | 88 | 1014.9 |
| 20260905195118 | 18 | 273 | 6.4 | 8.0 | 0.00 | 0.00 | 0.00 | 88 | 1015.2 |
| 20260905194620 | 19 | 291 | 8.0 | 12.9 | 0.00 | 0.00 | 0.00 | 88 | 1015.2 |
| 20260905194118 | 19 | 138 | 8.0 | 14.5 | 0.00 | 0.00 | 0.00 | 88 | 1015.2 |
| 20260905193618 | 19 | 258 | 11.3 | 12.9 | 0.00 | 0.00 | 0.00 | 88 | 1014.9 |
| 20260905193118 | 19 | 282 | 8.0 | 11.3 | 0.00 | 0.00 | 0.00 | 87 | 1014.9 |
| 20260905192618 | 19 | 250 | 6.4 | 11.3 | 0.00 | 0.00 | 0.00 | 87 | 1015.2 |
| 20260905192118 | 19 | 304 | 11.3 | 12.9 | 0.00 | 0.00 | 0.00 | 87 | 1015.2 |
| 20260905191618 | 19 | 240 | 3.2 | 9.7 | 0.00 | 0.00 | 0.00 | 86 | 1015.2 |
| 20260905191120 | 19 | 282 | 4.8 | 8.0 | 0.00 | 0.00 | 0.00 | 86 | 1015.2 |
| 20260905190618 | 19 | 276 | 6.4 | 8.0 | 0.00 | 0.00 | 0.00 | 85 | 1015.2 |
| 20260905190118 | 19 | 271 | 11.3 | 16.1 | 0.00 | 0.00 | 0.00 | 85 | 1015.2 |
| 20260905185618 | 19 | 244 | 4.8 | 4.8 | 0.00 | 0.00 | 0.00 | 85 | 1015.2 |
| 20260905185119 | 19 | 315 | 12.9 | 16.1 | 0.00 | 0.00 | 0.00 | 84 | 1015.2 |
| 20260905184618 | 20 | 274 | 11.3 | 14.5 | 0.00 | 0.00 | 0.00 | 83 | 1015.2 |
| 20260905184118 | 20 | 291 | 14.5 | 17.7 | 0.00 | 0.00 | 0.00 | 83 | 1015.2 |
| 20260905183618 | 20 | 282 | 8.0 | 14.5 | 0.00 | 0.00 | 0.00 | 81 | 1015.2 |
| 20260905183118 | 20 | 281 | 9.7 | 14.5 | 0.00 | 0.00 | 0.00 | 81 | 1015.2 |
| 20260905182618 | 20 | 250 | 8.0 | 12.9 | 0.00 | 0.00 | 0.00 | 80 | 1015.2 |
| 20260905182118 | 20 | 291 | 4.8 | 4.8 | 0.00 | 0.00 | 0.00 | 80 | 1015.2 |
| 20260905181618 | 20 | 288 | 8.0 | 11.3 | 0.00 | 0.00 | 0.00 | 79 | 1015.2 |
| 20260905181118 | 20 | 276 | 4.8 | 8.0 | 0.00 | 0.00 | 0.00 | 79 | 1015.2 |
| 20260905180618 | 20 | 275 | 4.8 | 4.8 | 0.00 | 0.00 | 0.00 | 79 | 1015.2 |
| 20260905180119 | 20 | 280 | 4.8 | 4.8 | 0.00 | 0.00 | 0.00 | 79 | 1014.9 |
| 20260905175618 | 20 | 254 | 12.9 | 17.7 | 0.00 | 0.00 | 0.00 | 79 | 1014.9 |
| 20260905175119 | 20 | 234 | 6.4 | 9.7 | 0.00 | 0.00 | 0.00 | 79 | 1015.2 |
| 20260905174618 | 20 | 273 | 11.3 | 14.5 | 0.00 | 0.00 | 0.00 | 78 | 1014.9 |
| 20260905174118 | 20 | 266 | 6.4 | 9.7 | 0.00 | 0.00 | 0.00 | 77 | 1014.9 |
| 20260905173619 | 20 | 220 | 11.3 | 12.9 | 0.00 | 0.00 | 0.00 | 76 | 1015.2 |
| 20260905173118 | 20 | 301 | 11.3 | 14.5 | 0.00 | 0.00 | 0.00 | 75 | 1014.9 |
| 20260905172618 | 20 | 252 | 4.8 | 4.8 | 0.00 | 0.00 | 0.00 | 73 | 1014.6 |
| 20260905172118 | 21 | 260 | 8.0 | 11.3 | 0.00 | 0.00 | 0.00 | 73 | 1014.9 |
| 20260905171618 | 21 | 258 | 6.4 | 9.7 | 0.00 | 0.00 | 0.00 | 71 | 1014.6 |
| 20260905171118 | 21 | 300 | 4.8 | 8.0 | 0.00 | 0.00 | 0.00 | 72 | 1014.9 |
| 20260905170619 | 21 | 266 | 6.4 | 11.3 | 0.00 | 0.00 | 0.00 | 72 | 1014.6 |
| 20260905170118 | 21 | 259 | 8.0 | 11.3 | 0.00 | 0.00 | 0.00 | 71 | 1014.9 |
| 20260905165619 | 21 | 247 | 8.0 | 9.7 | 0.00 | 0.00 | 0.00 | 71 | 1014.2 |
| 20260905165119 | 21 | 237 | 14.5 | 17.7 | 0.00 | 0.00 | 0.00 | 70 | 1014.6 |
| 20260905164619 | 21 | 240 | 11.3 | 12.9 | 0.00 | 0.00 | 0.00 | 70 | 1014.6 |
| 20260905164118 | 21 | 281 | 6.4 | 9.7 | 0.00 | 0.00 | 0.00 | 69 | 1014.6 |
| 20260905163618 | 21 | 234 | 8.0 | 9.7 | 0.00 | 0.00 | 0.00 | 69 | 1014.2 |
| 20260905163118 | 21 | 314 | 11.3 | 14.5 | 0.00 | 0.00 | 0.00 | 69 | 1014.6 |
| 20260905162619 | 21 | 219 | 8.0 | 11.3 | 0.00 | 0.00 | 0.00 | 68 | 1014.2 |
| 20260905162119 | 22 | 276 | 14.5 | 17.7 | 0.00 | 0.00 | 0.00 | 66 | 1014.6 |
| 20260905161619 | 22 | 261 | 4.8 | 8.0 | 0.00 | 0.00 | 0.00 | 65 | 1014.2 |
| 20260905161121 | 22 | 277 | 11.3 | 14.5 | 0.00 | 0.00 | 0.00 | 64 | 1014.6 |
| 20260905160618 | 22 | 257 | 8.0 | 11.3 | 0.00 | 0.00 | 0.00 | 63 | 1014.6 |
| 20260905160118 | 22 | 274 | 9.7 | 16.1 | 0.00 | 0.00 | 0.00 | 61 | 1014.6 |
| 20260905155618 | 22 | 11 | 8.0 | 9.7 | 0.00 | 0.00 | 0.00 | 60 | 1014.6 |
| 20260905155118 | 23 | 273 | 11.3 | 14.5 | 0.00 | 0.00 | 0.00 | 59 | 1014.6 |
| 20260905154618 | 23 | 278 | 16.1 | 24.1 | 0.00 | 0.00 | 0.00 | 56 | 1014.6 |
| 20260905154119 | 23 | 261 | 8.0 | 9.7 | 0.00 | 0.00 | 0.00 | 55 | 1014.6 |
| 20260905153618 | 23 | 274 | 14.5 | 17.7 | 0.00 | 0.00 | 0.00 | 55 | 1014.2 |
| 20260905153119 | 23 | 309 | 11.3 | 16.1 | 0.00 | 0.00 | 0.00 | 55 | 1014.6 |
| 20260905152619 | 24 | 273 | 9.7 | 11.3 | 0.00 | 0.00 | 0.00 | 53 | 1014.2 |
| 20260905152118 | 24 | 265 | 11.3 | 20.9 | 0.00 | 0.00 | 0.00 | 53 | 1014.2 |
| 20260905151618 | 24 | 252 | 12.9 | 17.7 | 0.00 | 0.00 | 0.00 | 52 | 1014.6 |
| 20260905151119 | 25 | 262 | 14.5 | 25.7 | 0.00 | 0.00 | 0.00 | 52 | 1014.2 |
| 20260905150619 | 25 | 298 | 9.7 | 11.3 | 0.00 | 0.00 | 0.00 | 51 | 1014.6 |
| 20260905150120 | 25 | 270 | 8.0 | 11.3 | 0.00 | 0.00 | 0.00 | 51 | 1014.2 |
| 20260905145618 | 25 | 234 | 8.0 | 14.5 | 0.00 | 0.00 | 0.00 | 51 | 1014.6 |
| 20260905145119 | 25 | 244 | 12.9 | 14.5 | 0.00 | 0.00 | 0.00 | 51 | 1014.6 |
| 20260905144626 | 25 | 251 | 6.4 | 8.0 | 0.00 | 0.00 | 0.00 | 51 | 1014.6 |
| 20260905144118 | 25 | 262 | 12.9 | 17.7 | 0.00 | 0.00 | 0.00 | 52 | 1014.2 |
| 20260905143619 | 25 | 284 | 6.4 | 9.7 | 0.00 | 0.00 | 0.00 | 52 | 1014.2 |
| 20260905143119 | 25 | 249 | 8.0 | 9.7 | 0.00 | 0.00 | 0.00 | 51 | 1014.2 |
| 20260905142619 | 25 | 225 | 9.7 | 12.9 | 0.00 | 0.00 | 0.00 | 51 | 1014.6 |
| 20260905142119 | 25 | 264 | 14.5 | 24.1 | 0.00 | 0.00 | 0.00 | 51 | 1014.6 |
| 20260905141618 | 26 | 267 | 8.0 | 24.1 | 0.00 | 0.00 | 0.00 | 49 | 1014.2 |
| 20260905141118 | 26 | 132 | 9.7 | 17.7 | 0.00 | 0.00 | 0.00 | 51 | 1014.2 |
| 20260905140618 | 26 | 280 | 8.0 | 12.9 | 0.00 | 0.00 | 0.00 | 51 | 1014.2 |
| 20260905140118 | 26 | 286 | 11.3 | 14.5 | 0.00 | 0.00 | 0.00 | 51 | 1014.2 |
| 20260905135618 | 26 | 83 | 8.0 | 12.9 | 0.00 | 0.00 | 0.00 | 51 | 1014.2 |
| 20260905135118 | 26 | 301 | 6.4 | 12.9 | 0.00 | 0.00 | 0.00 | 52 | 1014.6 |
| 20260905134618 | 26 | 245 | 9.7 | 14.5 | 0.00 | 0.00 | 0.00 | 52 | 1014.2 |
| 20260905134118 | 26 | 276 | 11.3 | 14.5 | 0.00 | 0.00 | 0.00 | 52 | 1014.2 |
| 20260905133618 | 26 | 17 | 9.7 | 14.5 | 0.00 | 0.00 | 0.00 | 52 | 1014.2 |
| 20260905133119 | 26 | 260 | 9.7 | 11.3 | 0.00 | 0.00 | 0.00 | 52 | 1014.2 |
| 20260905132128 | 26 | 308 | 9.7 | 11.3 | 0.00 | 0.00 | 0.00 | 53 | 1014.2 |
| 20260905131618 | 26 | 247 | 6.4 | 8.0 | 0.00 | 0.00 | 0.00 | 53 | 1014.6 |
| 20260905131119 | 26 | 318 | 6.4 | 11.3 | 0.00 | 0.00 | 0.00 | 51 | 1014.6 |
| 20260905130618 | 26 | 219 | 14.5 | 17.7 | 0.00 | 0.00 | 0.00 | 52 | 1014.2 |
| 20260905130120 | 27 | 276 | 19.3 | 22.5 | 0.00 | 0.00 | 0.00 | 51 | 1014.6 |
| 20260905125618 | 27 | 269 | 12.9 | 17.7 | 0.00 | 0.00 | 0.00 | 50 | 1014.6 |